sensor_id;sensor_type;location;lat;lon;timestamp;P1;durP1;ratioP1;P2;durP2;ratioP2
14789;SDS011;7486;51.010;10.366;2023-03-09T00:01:17;11.17;;;7.37;;
14789;SDS011;7486;51.010;10.366;2023-03-09T00:04:08;10.77;;;6.80;;
14789;SDS011;7486;51.010;10.366;2023-03-09T00:06:57;7.83;;;5.03;;
14789;SDS011;7486;51.010;10.366;2023-03-09T00:09:43;6.50;;;5.13;;
14789;SDS011;7486;51.010;10.366;2023-03-09T00:12:28;6.70;;;5.00;;
14789;SDS011;7486;51.010;10.366;2023-03-09T00:15:14;6.93;;;4.97;;
14789;SDS011;7486;51.010;10.366;2023-03-09T00:17:59;7.00;;;4.80;;
14789;SDS011;7486;51.010;10.366;2023-03-09T00:20:45;5.30;;;4.33;;
14789;SDS011;7486;51.010;10.366;2023-03-09T00:23:31;6.07;;;4.80;;
14789;SDS011;7486;51.010;10.366;2023-03-09T00:26:17;6.40;;;4.53;;
14789;SDS011;7486;51.010;10.366;2023-03-09T00:29:03;7.43;;;5.27;;
14789;SDS011;7486;51.010;10.366;2023-03-09T00:31:48;8.63;;;5.47;;
14789;SDS011;7486;51.010;10.366;2023-03-09T00:34:34;7.13;;;4.97;;
14789;SDS011;7486;51.010;10.366;2023-03-09T00:37:21;7.10;;;5.07;;
14789;SDS011;7486;51.010;10.366;2023-03-09T00:40:07;7.17;;;5.40;;
14789;SDS011;7486;51.010;10.366;2023-03-09T00:42:53;7.10;;;5.30;;
14789;SDS011;7486;51.010;10.366;2023-03-09T00:45:38;7.37;;;5.53;;
14789;SDS011;7486;51.010;10.366;2023-03-09T00:48:24;6.60;;;5.30;;
14789;SDS011;7486;51.010;10.366;2023-03-09T00:51:11;8.73;;;6.20;;
14789;SDS011;7486;51.010;10.366;2023-03-09T00:54:22;8.97;;;6.07;;
14789;SDS011;7486;51.010;10.366;2023-03-09T00:57:08;8.67;;;5.80;;
14789;SDS011;7486;51.010;10.366;2023-03-09T00:59:54;7.47;;;5.83;;
14789;SDS011;7486;51.010;10.366;2023-03-09T01:02:39;7.93;;;5.93;;
14789;SDS011;7486;51.010;10.366;2023-03-09T01:05:25;10.47;;;7.10;;
14789;SDS011;7486;51.010;10.366;2023-03-09T01:08:11;9.57;;;6.10;;
14789;SDS011;7486;51.010;10.366;2023-03-09T01:10:56;9.43;;;6.30;;
14789;SDS011;7486;51.010;10.366;2023-03-09T01:13:42;8.73;;;6.10;;
14789;SDS011;7486;51.010;10.366;2023-03-09T01:16:28;8.30;;;6.17;;
14789;SDS011;7486;51.010;10.366;2023-03-09T01:19:14;8.80;;;5.67;;
14789;SDS011;7486;51.010;10.366;2023-03-09T01:21:59;9.77;;;6.60;;
14789;SDS011;7486;51.010;10.366;2023-03-09T01:24:45;9.00;;;5.93;;
14789;SDS011;7486;51.010;10.366;2023-03-09T01:27:30;8.30;;;5.90;;
14789;SDS011;7486;51.010;10.366;2023-03-09T01:30:17;8.27;;;6.00;;
14789;SDS011;7486;51.010;10.366;2023-03-09T01:33:03;7.20;;;5.50;;
14789;SDS011;7486;51.010;10.366;2023-03-09T01:35:49;8.27;;;5.43;;
14789;SDS011;7486;51.010;10.366;2023-03-09T01:38:34;10.37;;;6.57;;
14789;SDS011;7486;51.010;10.366;2023-03-09T01:41:20;9.73;;;6.47;;
14789;SDS011;7486;51.010;10.366;2023-03-09T01:44:08;8.67;;;5.63;;
14789;SDS011;7486;51.010;10.366;2023-03-09T01:46:56;7.93;;;5.60;;
14789;SDS011;7486;51.010;10.366;2023-03-09T01:49:46;6.97;;;4.77;;
14789;SDS011;7486;51.010;10.366;2023-03-09T01:52:35;5.00;;;3.73;;
14789;SDS011;7486;51.010;10.366;2023-03-09T01:55:23;4.67;;;3.53;;
14789;SDS011;7486;51.010;10.366;2023-03-09T01:58:15;3.63;;;3.07;;
14789;SDS011;7486;51.010;10.366;2023-03-09T02:01:06;3.73;;;3.00;;
14789;SDS011;7486;51.010;10.366;2023-03-09T02:03:53;3.73;;;2.83;;
14789;SDS011;7486;51.010;10.366;2023-03-09T02:06:42;3.47;;;2.87;;
14789;SDS011;7486;51.010;10.366;2023-03-09T02:09:31;3.07;;;2.77;;
14789;SDS011;7486;51.010;10.366;2023-03-09T02:12:22;3.23;;;2.70;;
14789;SDS011;7486;51.010;10.366;2023-03-09T02:15:07;3.33;;;2.90;;
14789;SDS011;7486;51.010;10.366;2023-03-09T02:17:53;3.40;;;2.90;;
14789;SDS011;7486;51.010;10.366;2023-03-09T02:24:07;3.37;;;2.83;;
14789;SDS011;7486;51.010;10.366;2023-03-09T02:27:24;3.40;;;3.07;;
14789;SDS011;7486;51.010;10.366;2023-03-09T02:30:12;3.90;;;3.00;;
14789;SDS011;7486;51.010;10.366;2023-03-09T02:35:56;2.93;;;2.53;;
14789;SDS011;7486;51.010;10.366;2023-03-09T02:38:47;3.23;;;2.87;;
14789;SDS011;7486;51.010;10.366;2023-03-09T02:41:35;2.83;;;2.50;;
14789;SDS011;7486;51.010;10.366;2023-03-09T02:44:22;3.23;;;2.70;;
14789;SDS011;7486;51.010;10.366;2023-03-09T02:47:09;3.00;;;2.70;;
14789;SDS011;7486;51.010;10.366;2023-03-09T02:49:58;4.43;;;2.53;;
14789;SDS011;7486;51.010;10.366;2023-03-09T02:52:44;3.13;;;2.83;;
14789;SDS011;7486;51.010;10.366;2023-03-09T02:55:30;8.03;;;2.93;;
14789;SDS011;7486;51.010;10.366;2023-03-09T02:58:17;4.23;;;2.67;;
14789;SDS011;7486;51.010;10.366;2023-03-09T03:01:03;6.47;;;2.73;;
14789;SDS011;7486;51.010;10.366;2023-03-09T03:03:48;3.27;;;2.60;;
14789;SDS011;7486;51.010;10.366;2023-03-09T03:06:34;2.67;;;2.47;;
14789;SDS011;7486;51.010;10.366;2023-03-09T03:09:20;3.60;;;2.87;;
14789;SDS011;7486;51.010;10.366;2023-03-09T03:12:05;3.40;;;2.87;;
14789;SDS011;7486;51.010;10.366;2023-03-09T03:14:51;2.87;;;2.67;;
14789;SDS011;7486;51.010;10.366;2023-03-09T03:17:37;3.13;;;2.83;;
14789;SDS011;7486;51.010;10.366;2023-03-09T03:20:23;3.40;;;3.10;;
14789;SDS011;7486;51.010;10.366;2023-03-09T03:23:08;3.37;;;3.07;;
14789;SDS011;7486;51.010;10.366;2023-03-09T03:26:06;3.20;;;2.90;;
14789;SDS011;7486;51.010;10.366;2023-03-09T03:28:55;3.23;;;2.93;;
14789;SDS011;7486;51.010;10.366;2023-03-09T03:31:44;3.47;;;2.83;;
14789;SDS011;7486;51.010;10.366;2023-03-09T03:34:30;3.30;;;3.00;;
14789;SDS011;7486;51.010;10.366;2023-03-09T03:37:16;2.90;;;2.70;;
14789;SDS011;7486;51.010;10.366;2023-03-09T03:40:03;3.30;;;3.00;;
14789;SDS011;7486;51.010;10.366;2023-03-09T03:42:49;2.90;;;2.60;;
14789;SDS011;7486;51.010;10.366;2023-03-09T03:45:34;3.80;;;2.57;;
14789;SDS011;7486;51.010;10.366;2023-03-09T03:48:20;3.30;;;2.97;;
14789;SDS011;7486;51.010;10.366;2023-03-09T03:51:05;3.10;;;2.80;;
14789;SDS011;7486;51.010;10.366;2023-03-09T03:53:51;3.57;;;3.13;;
14789;SDS011;7486;51.010;10.366;2023-03-09T03:56:37;9.87;;;3.63;;
14789;SDS011;7486;51.010;10.366;2023-03-09T03:59:27;20.10;;;4.10;;
14789;SDS011;7486;51.010;10.366;2023-03-09T04:02:12;4.37;;;3.53;;
14789;SDS011;7486;51.010;10.366;2023-03-09T04:04:58;38.33;;;5.80;;
14789;SDS011;7486;51.010;10.366;2023-03-09T04:07:43;21.83;;;4.17;;
14789;SDS011;7486;51.010;10.366;2023-03-09T04:10:29;3.83;;;3.27;;
14789;SDS011;7486;51.010;10.366;2023-03-09T04:13:14;4.83;;;3.63;;
14789;SDS011;7486;51.010;10.366;2023-03-09T04:16:01;4.10;;;3.23;;
14789;SDS011;7486;51.010;10.366;2023-03-09T04:18:46;3.40;;;3.10;;
14789;SDS011;7486;51.010;10.366;2023-03-09T04:21:34;3.83;;;3.43;;
14789;SDS011;7486;51.010;10.366;2023-03-09T04:24:20;4.47;;;3.73;;
14789;SDS011;7486;51.010;10.366;2023-03-09T04:27:05;3.63;;;3.23;;
14789;SDS011;7486;51.010;10.366;2023-03-09T04:30:20;3.53;;;3.23;;
14789;SDS011;7486;51.010;10.366;2023-03-09T04:33:08;3.67;;;3.37;;
14789;SDS011;7486;51.010;10.366;2023-03-09T04:35:55;4.57;;;3.67;;
14789;SDS011;7486;51.010;10.366;2023-03-09T04:38:48;3.87;;;3.40;;
14789;SDS011;7486;51.010;10.366;2023-03-09T04:41:35;4.00;;;3.50;;
14789;SDS011;7486;51.010;10.366;2023-03-09T04:44:24;5.13;;;3.40;;
14789;SDS011;7486;51.010;10.366;2023-03-09T04:47:11;3.63;;;3.23;;
14789;SDS011;7486;51.010;10.366;2023-03-09T04:49:56;3.67;;;3.30;;
14789;SDS011;7486;51.010;10.366;2023-03-09T04:52:44;3.63;;;3.23;;
14789;SDS011;7486;51.010;10.366;2023-03-09T04:55:30;3.90;;;3.50;;
14789;SDS011;7486;51.010;10.366;2023-03-09T04:58:17;4.30;;;3.90;;
14789;SDS011;7486;51.010;10.366;2023-03-09T05:01:03;5.50;;;4.53;;
14789;SDS011;7486;51.010;10.366;2023-03-09T05:03:48;5.53;;;4.47;;
14789;SDS011;7486;51.010;10.366;2023-03-09T05:06:34;6.70;;;4.57;;
14789;SDS011;7486;51.010;10.366;2023-03-09T05:09:20;5.57;;;4.60;;
14789;SDS011;7486;51.010;10.366;2023-03-09T05:12:06;6.93;;;5.03;;
14789;SDS011;7486;51.010;10.366;2023-03-09T05:14:54;9.33;;;6.40;;
14789;SDS011;7486;51.010;10.366;2023-03-09T05:17:40;7.37;;;5.60;;
14789;SDS011;7486;51.010;10.366;2023-03-09T05:20:26;6.93;;;5.30;;
14789;SDS011;7486;51.010;10.366;2023-03-09T05:23:17;7.93;;;5.67;;
14789;SDS011;7486;51.010;10.366;2023-03-09T05:26:02;8.40;;;6.10;;
14789;SDS011;7486;51.010;10.366;2023-03-09T05:28:49;9.07;;;6.03;;
14789;SDS011;7486;51.010;10.366;2023-03-09T05:31:35;8.23;;;6.10;;
14789;SDS011;7486;51.010;10.366;2023-03-09T05:34:21;7.87;;;5.73;;
14789;SDS011;7486;51.010;10.366;2023-03-09T05:37:07;7.70;;;5.70;;
14789;SDS011;7486;51.010;10.366;2023-03-09T05:39:54;7.83;;;5.80;;
14789;SDS011;7486;51.010;10.366;2023-03-09T05:42:40;8.10;;;6.60;;
14789;SDS011;7486;51.010;10.366;2023-03-09T05:45:26;7.80;;;6.07;;
14789;SDS011;7486;51.010;10.366;2023-03-09T05:48:12;7.13;;;5.50;;
14789;SDS011;7486;51.010;10.366;2023-03-09T05:51:00;7.97;;;5.77;;
14789;SDS011;7486;51.010;10.366;2023-03-09T05:53:46;7.57;;;6.20;;
14789;SDS011;7486;51.010;10.366;2023-03-09T05:56:33;8.10;;;5.80;;
14789;SDS011;7486;51.010;10.366;2023-03-09T05:59:20;9.27;;;6.70;;
14789;SDS011;7486;51.010;10.366;2023-03-09T06:02:07;8.10;;;6.40;;
14789;SDS011;7486;51.010;10.366;2023-03-09T06:04:55;8.40;;;6.47;;
14789;SDS011;7486;51.010;10.366;2023-03-09T06:07:40;9.97;;;7.23;;
14789;SDS011;7486;51.010;10.366;2023-03-09T06:10:26;8.73;;;6.53;;
14789;SDS011;7486;51.010;10.366;2023-03-09T06:13:13;8.50;;;7.10;;
14789;SDS011;7486;51.010;10.366;2023-03-09T06:16:02;10.97;;;7.50;;
14789;SDS011;7486;51.010;10.366;2023-03-09T06:18:51;9.00;;;7.43;;
14789;SDS011;7486;51.010;10.366;2023-03-09T06:21:37;10.67;;;8.00;;
14789;SDS011;7486;51.010;10.366;2023-03-09T06:24:23;9.57;;;7.30;;
14789;SDS011;7486;51.010;10.366;2023-03-09T06:27:09;9.80;;;7.57;;
14789;SDS011;7486;51.010;10.366;2023-03-09T06:29:56;10.33;;;7.50;;
14789;SDS011;7486;51.010;10.366;2023-03-09T06:32:42;8.90;;;6.97;;
14789;SDS011;7486;51.010;10.366;2023-03-09T06:35:29;10.13;;;7.47;;
14789;SDS011;7486;51.010;10.366;2023-03-09T06:38:14;11.83;;;7.80;;
14789;SDS011;7486;51.010;10.366;2023-03-09T06:41:03;10.37;;;7.73;;
14789;SDS011;7486;51.010;10.366;2023-03-09T06:43:48;9.57;;;7.80;;
14789;SDS011;7486;51.010;10.366;2023-03-09T06:46:34;10.50;;;7.50;;
14789;SDS011;7486;51.010;10.366;2023-03-09T06:49:19;7.83;;;6.70;;
14789;SDS011;7486;51.010;10.366;2023-03-09T06:52:05;7.97;;;6.63;;
14789;SDS011;7486;51.010;10.366;2023-03-09T06:54:52;9.80;;;7.20;;
14789;SDS011;7486;51.010;10.366;2023-03-09T06:57:49;9.97;;;7.70;;
14789;SDS011;7486;51.010;10.366;2023-03-09T07:00:37;8.97;;;7.43;;
14789;SDS011;7486;51.010;10.366;2023-03-09T07:03:22;8.27;;;7.23;;
14789;SDS011;7486;51.010;10.366;2023-03-09T07:06:08;8.40;;;6.90;;
14789;SDS011;7486;51.010;10.366;2023-03-09T07:08:55;8.20;;;6.77;;
14789;SDS011;7486;51.010;10.366;2023-03-09T07:11:41;7.90;;;6.77;;
14789;SDS011;7486;51.010;10.366;2023-03-09T07:14:27;7.67;;;6.87;;
14789;SDS011;7486;51.010;10.366;2023-03-09T07:17:12;8.03;;;6.90;;
14789;SDS011;7486;51.010;10.366;2023-03-09T07:19:58;9.10;;;7.27;;
14789;SDS011;7486;51.010;10.366;2023-03-09T07:22:44;8.97;;;7.23;;
14789;SDS011;7486;51.010;10.366;2023-03-09T07:25:29;8.80;;;6.77;;
14789;SDS011;7486;51.010;10.366;2023-03-09T07:28:14;9.83;;;6.90;;
14789;SDS011;7486;51.010;10.366;2023-03-09T07:31:10;8.47;;;6.97;;
14789;SDS011;7486;51.010;10.366;2023-03-09T07:33:57;8.50;;;6.87;;
14789;SDS011;7486;51.010;10.366;2023-03-09T07:36:42;10.53;;;7.63;;
14789;SDS011;7486;51.010;10.366;2023-03-09T07:39:28;9.20;;;7.33;;
14789;SDS011;7486;51.010;10.366;2023-03-09T07:42:13;12.97;;;9.07;;
14789;SDS011;7486;51.010;10.366;2023-03-09T07:45:31;8.47;;;6.90;;
14789;SDS011;7486;51.010;10.366;2023-03-09T07:48:17;8.27;;;6.90;;
14789;SDS011;7486;51.010;10.366;2023-03-09T07:51:03;7.50;;;6.50;;
14789;SDS011;7486;51.010;10.366;2023-03-09T07:53:48;8.03;;;6.33;;
14789;SDS011;7486;51.010;10.366;2023-03-09T07:56:34;7.60;;;6.03;;
14789;SDS011;7486;51.010;10.366;2023-03-09T07:59:19;7.00;;;6.13;;
14789;SDS011;7486;51.010;10.366;2023-03-09T08:02:05;7.13;;;5.77;;
14789;SDS011;7486;51.010;10.366;2023-03-09T08:04:51;7.33;;;6.17;;
14789;SDS011;7486;51.010;10.366;2023-03-09T08:07:36;8.07;;;6.67;;
14789;SDS011;7486;51.010;10.366;2023-03-09T08:10:22;8.63;;;7.47;;
14789;SDS011;7486;51.010;10.366;2023-03-09T08:13:09;10.53;;;8.23;;
14789;SDS011;7486;51.010;10.366;2023-03-09T08:15:58;10.43;;;8.33;;
14789;SDS011;7486;51.010;10.366;2023-03-09T08:18:45;16.93;;;13.33;;
14789;SDS011;7486;51.010;10.366;2023-03-09T08:21:31;27.53;;;21.80;;
14789;SDS011;7486;51.010;10.366;2023-03-09T08:24:16;13.33;;;11.87;;
14789;SDS011;7486;51.010;10.366;2023-03-09T08:27:02;15.00;;;11.50;;
14789;SDS011;7486;51.010;10.366;2023-03-09T08:29:47;13.10;;;10.20;;
14789;SDS011;7486;51.010;10.366;2023-03-09T08:32:32;12.67;;;9.63;;
14789;SDS011;7486;51.010;10.366;2023-03-09T08:35:19;8.17;;;7.03;;
14789;SDS011;7486;51.010;10.366;2023-03-09T08:38:06;9.43;;;7.23;;
14789;SDS011;7486;51.010;10.366;2023-03-09T08:40:51;9.57;;;8.60;;
14789;SDS011;7486;51.010;10.366;2023-03-09T08:43:36;7.30;;;6.37;;
14789;SDS011;7486;51.010;10.366;2023-03-09T08:46:25;7.63;;;5.50;;
14789;SDS011;7486;51.010;10.366;2023-03-09T08:49:13;8.40;;;6.47;;
14789;SDS011;7486;51.010;10.366;2023-03-09T08:51:58;11.80;;;10.63;;
14789;SDS011;7486;51.010;10.366;2023-03-09T08:54:44;14.13;;;12.83;;
14789;SDS011;7486;51.010;10.366;2023-03-09T08:57:31;11.23;;;9.70;;
14789;SDS011;7486;51.010;10.366;2023-03-09T09:00:17;10.67;;;6.20;;
14789;SDS011;7486;51.010;10.366;2023-03-09T09:03:03;19.50;;;13.37;;
14789;SDS011;7486;51.010;10.366;2023-03-09T09:05:49;14.40;;;9.93;;
14789;SDS011;7486;51.010;10.366;2023-03-09T09:08:35;16.77;;;10.13;;
14789;SDS011;7486;51.010;10.366;2023-03-09T09:11:24;13.57;;;8.97;;
14789;SDS011;7486;51.010;10.366;2023-03-09T09:14:09;10.60;;;7.43;;
14789;SDS011;7486;51.010;10.366;2023-03-09T09:16:55;10.73;;;7.00;;
14789;SDS011;7486;51.010;10.366;2023-03-09T09:19:40;11.23;;;8.00;;
14789;SDS011;7486;51.010;10.366;2023-03-09T09:22:26;10.33;;;8.43;;
14789;SDS011;7486;51.010;10.366;2023-03-09T09:25:11;11.27;;;9.67;;
14789;SDS011;7486;51.010;10.366;2023-03-09T09:27:57;45.70;;;39.40;;
14789;SDS011;7486;51.010;10.366;2023-03-09T09:30:43;21.77;;;19.53;;
14789;SDS011;7486;51.010;10.366;2023-03-09T09:33:28;12.33;;;9.60;;
14789;SDS011;7486;51.010;10.366;2023-03-09T09:36:16;9.37;;;7.50;;
14789;SDS011;7486;51.010;10.366;2023-03-09T09:39:03;15.03;;;13.53;;
14789;SDS011;7486;51.010;10.366;2023-03-09T09:41:50;20.10;;;18.13;;
14789;SDS011;7486;51.010;10.366;2023-03-09T09:44:42;9.77;;;8.77;;
14789;SDS011;7486;51.010;10.366;2023-03-09T09:47:35;13.70;;;12.40;;
14789;SDS011;7486;51.010;10.366;2023-03-09T09:50:21;9.20;;;7.37;;
14789;SDS011;7486;51.010;10.366;2023-03-09T09:56:40;8.80;;;7.80;;
14789;SDS011;7486;51.010;10.366;2023-03-09T09:59:41;11.30;;;10.10;;
14789;SDS011;7486;51.010;10.366;2023-03-09T10:02:35;17.40;;;15.60;;
14789;SDS011;7486;51.010;10.366;2023-03-09T10:05:46;20.93;;;18.93;;
14789;SDS011;7486;51.010;10.366;2023-03-09T10:08:37;26.93;;;24.23;;
14789;SDS011;7486;51.010;10.366;2023-03-09T10:11:31;21.97;;;19.77;;
14789;SDS011;7486;51.010;10.366;2023-03-09T10:17:18;10.03;;;8.33;;
14789;SDS011;7486;51.010;10.366;2023-03-09T10:23:28;10.40;;;9.30;;
14789;SDS011;7486;51.010;10.366;2023-03-09T10:29:37;9.33;;;8.33;;
14789;SDS011;7486;51.010;10.366;2023-03-09T10:38:39;10.40;;;8.73;;
14789;SDS011;7486;51.010;10.366;2023-03-09T10:41:24;11.10;;;9.03;;
14789;SDS011;7486;51.010;10.366;2023-03-09T10:44:10;11.13;;;9.17;;
14789;SDS011;7486;51.010;10.366;2023-03-09T10:46:59;10.17;;;8.67;;
14789;SDS011;7486;51.010;10.366;2023-03-09T11:01:49;7.17;;;5.33;;
14789;SDS011;7486;51.010;10.366;2023-03-09T11:04:36;10.73;;;5.73;;
14789;SDS011;7486;51.010;10.366;2023-03-09T11:07:28;5.80;;;5.20;;
14789;SDS011;7486;51.010;10.366;2023-03-09T11:10:35;2.60;;;2.40;;
14789;SDS011;7486;51.010;10.366;2023-03-09T11:13:21;2.10;;;1.90;;
14789;SDS011;7486;51.010;10.366;2023-03-09T11:19:12;1.93;;;1.67;;
14789;SDS011;7486;51.010;10.366;2023-03-09T11:22:09;1.50;;;1.40;;
14789;SDS011;7486;51.010;10.366;2023-03-09T11:25:03;1.87;;;1.57;;
14789;SDS011;7486;51.010;10.366;2023-03-09T11:28:03;2.33;;;1.40;;
14789;SDS011;7486;51.010;10.366;2023-03-09T11:31:12;2.07;;;1.50;;
14789;SDS011;7486;51.010;10.366;2023-03-09T11:33:59;1.93;;;1.40;;
14789;SDS011;7486;51.010;10.366;2023-03-09T11:37:30;1.30;;;1.20;;
14789;SDS011;7486;51.010;10.366;2023-03-09T11:45:43;1.30;;;1.20;;
14789;SDS011;7486;51.010;10.366;2023-03-09T11:48:33;1.30;;;1.20;;
14789;SDS011;7486;51.010;10.366;2023-03-09T11:51:41;0.80;;;0.80;;
14789;SDS011;7486;51.010;10.366;2023-03-09T11:57:16;1.50;;;1.00;;
14789;SDS011;7486;51.010;10.366;2023-03-09T12:00:06;1.20;;;1.10;;
14789;SDS011;7486;51.010;10.366;2023-03-09T12:03:00;1.33;;;1.10;;
14789;SDS011;7486;51.010;10.366;2023-03-09T12:05:59;0.90;;;0.90;;
14789;SDS011;7486;51.010;10.366;2023-03-09T12:08:50;1.87;;;0.83;;
14789;SDS011;7486;51.010;10.366;2023-03-09T12:11:40;0.70;;;0.70;;
14789;SDS011;7486;51.010;10.366;2023-03-09T12:14:55;1.20;;;0.80;;
14789;SDS011;7486;51.010;10.366;2023-03-09T12:18:04;0.97;;;0.70;;
14789;SDS011;7486;51.010;10.366;2023-03-09T12:20:53;0.80;;;0.80;;
14789;SDS011;7486;51.010;10.366;2023-03-09T12:23:42;1.00;;;0.90;;
14789;SDS011;7486;51.010;10.366;2023-03-09T12:26:31;0.60;;;0.60;;
14789;SDS011;7486;51.010;10.366;2023-03-09T12:29:21;1.23;;;0.60;;
14789;SDS011;7486;51.010;10.366;2023-03-09T12:35:11;0.80;;;0.63;;
14789;SDS011;7486;51.010;10.366;2023-03-09T12:40:47;0.60;;;0.60;;
14789;SDS011;7486;51.010;10.366;2023-03-09T12:43:42;1.33;;;0.70;;
14789;SDS011;7486;51.010;10.366;2023-03-09T12:46:48;1.37;;;0.80;;
14789;SDS011;7486;51.010;10.366;2023-03-09T12:49:45;0.77;;;0.53;;
14789;SDS011;7486;51.010;10.366;2023-03-09T13:01:09;0.50;;;0.50;;
14789;SDS011;7486;51.010;10.366;2023-03-09T13:04:18;0.60;;;0.60;;
14789;SDS011;7486;51.010;10.366;2023-03-09T13:07:09;0.60;;;0.60;;
14789;SDS011;7486;51.010;10.366;2023-03-09T13:10:04;0.60;;;0.60;;
14789;SDS011;7486;51.010;10.366;2023-03-09T13:12:53;0.93;;;0.60;;
14789;SDS011;7486;51.010;10.366;2023-03-09T13:15:40;0.60;;;0.60;;
14789;SDS011;7486;51.010;10.366;2023-03-09T13:18:26;0.93;;;0.67;;
14789;SDS011;7486;51.010;10.366;2023-03-09T13:27:20;0.67;;;0.60;;
14789;SDS011;7486;51.010;10.366;2023-03-09T13:35:50;1.47;;;0.70;;
14789;SDS011;7486;51.010;10.366;2023-03-09T13:38:39;0.97;;;0.50;;
14789;SDS011;7486;51.010;10.366;2023-03-09T13:41:29;0.60;;;0.60;;
14789;SDS011;7486;51.010;10.366;2023-03-09T13:44:24;5.90;;;4.53;;
14789;SDS011;7486;51.010;10.366;2023-03-09T13:47:17;16.17;;;10.17;;
14789;SDS011;7486;51.010;10.366;2023-03-09T13:50:14;7.83;;;5.70;;
14789;SDS011;7486;51.010;10.366;2023-03-09T13:56:05;90.97;;;43.43;;
14789;SDS011;7486;51.010;10.366;2023-03-09T13:58:51;93.80;;;58.30;;
14789;SDS011;7486;51.010;10.366;2023-03-09T14:01:36;2.43;;;2.23;;
14789;SDS011;7486;51.010;10.366;2023-03-09T14:04:21;1.17;;;1.07;;
14789;SDS011;7486;51.010;10.366;2023-03-09T14:07:13;0.77;;;0.73;;
14789;SDS011;7486;51.010;10.366;2023-03-09T14:10:13;0.80;;;0.80;;
14789;SDS011;7486;51.010;10.366;2023-03-09T14:13:05;1.30;;;1.20;;
14789;SDS011;7486;51.010;10.366;2023-03-09T14:15:59;1.27;;;1.17;;
14789;SDS011;7486;51.010;10.366;2023-03-09T14:18:51;1.13;;;1.03;;
14789;SDS011;7486;51.010;10.366;2023-03-09T14:21:39;0.87;;;0.80;;
14789;SDS011;7486;51.010;10.366;2023-03-09T14:24:31;1.20;;;1.10;;
14789;SDS011;7486;51.010;10.366;2023-03-09T14:27:22;1.00;;;1.00;;
14789;SDS011;7486;51.010;10.366;2023-03-09T14:33:29;1.13;;;1.10;;
14789;SDS011;7486;51.010;10.366;2023-03-09T14:36:16;1.00;;;1.00;;
14789;SDS011;7486;51.010;10.366;2023-03-09T14:39:04;1.13;;;0.80;;
14789;SDS011;7486;51.010;10.366;2023-03-09T14:42:05;1.60;;;1.50;;
14789;SDS011;7486;51.010;10.366;2023-03-09T14:45:18;1.50;;;1.20;;
14789;SDS011;7486;51.010;10.366;2023-03-09T14:48:06;1.17;;;1.10;;
14789;SDS011;7486;51.010;10.366;2023-03-09T14:50:52;1.53;;;1.20;;
14789;SDS011;7486;51.010;10.366;2023-03-09T14:53:47;1.70;;;1.60;;
14789;SDS011;7486;51.010;10.366;2023-03-09T14:56:34;1.63;;;1.30;;
14789;SDS011;7486;51.010;10.366;2023-03-09T14:59:20;3.47;;;1.27;;
14789;SDS011;7486;51.010;10.366;2023-03-09T15:02:06;1.40;;;1.30;;
14789;SDS011;7486;51.010;10.366;2023-03-09T15:04:53;3.43;;;2.20;;
14789;SDS011;7486;51.010;10.366;2023-03-09T15:07:39;2.00;;;1.80;;
14789;SDS011;7486;51.010;10.366;2023-03-09T15:10:25;1.20;;;1.10;;
14789;SDS011;7486;51.010;10.366;2023-03-09T15:13:12;1.63;;;1.10;;
14789;SDS011;7486;51.010;10.366;2023-03-09T15:15:57;2.17;;;1.30;;
14789;SDS011;7486;51.010;10.366;2023-03-09T15:18:43;0.90;;;0.90;;
14789;SDS011;7486;51.010;10.366;2023-03-09T15:21:28;1.60;;;1.07;;
14789;SDS011;7486;51.010;10.366;2023-03-09T15:24:14;0.90;;;0.90;;
14789;SDS011;7486;51.010;10.366;2023-03-09T15:27:00;1.10;;;1.00;;
14789;SDS011;7486;51.010;10.366;2023-03-09T15:29:46;3.77;;;1.30;;
14789;SDS011;7486;51.010;10.366;2023-03-09T15:32:31;1.70;;;1.13;;
14789;SDS011;7486;51.010;10.366;2023-03-09T15:35:17;2.63;;;1.20;;
14789;SDS011;7486;51.010;10.366;2023-03-09T15:38:05;1.63;;;1.20;;
14789;SDS011;7486;51.010;10.366;2023-03-09T15:40:50;1.63;;;1.10;;
14789;SDS011;7486;51.010;10.366;2023-03-09T15:43:36;1.53;;;1.20;;
14789;SDS011;7486;51.010;10.366;2023-03-09T15:46:21;2.13;;;1.53;;
14789;SDS011;7486;51.010;10.366;2023-03-09T15:49:07;2.03;;;1.50;;
14789;SDS011;7486;51.010;10.366;2023-03-09T15:51:53;2.33;;;1.50;;
14789;SDS011;7486;51.010;10.366;2023-03-09T15:54:38;3.80;;;2.50;;
14789;SDS011;7486;51.010;10.366;2023-03-09T15:57:23;2.20;;;2.00;;
14789;SDS011;7486;51.010;10.366;2023-03-09T16:00:09;3.30;;;2.90;;
14789;SDS011;7486;51.010;10.366;2023-03-09T16:03:02;3.10;;;2.80;;
14789;SDS011;7486;51.010;10.366;2023-03-09T16:05:48;2.40;;;2.20;;
14789;SDS011;7486;51.010;10.366;2023-03-09T16:08:33;2.97;;;2.67;;
14789;SDS011;7486;51.010;10.366;2023-03-09T16:11:18;2.00;;;1.83;;
14789;SDS011;7486;51.010;10.366;2023-03-09T16:14:04;3.77;;;2.60;;
14789;SDS011;7486;51.010;10.366;2023-03-09T16:16:50;5.13;;;3.70;;
14789;SDS011;7486;51.010;10.366;2023-03-09T16:19:35;3.93;;;3.23;;
14789;SDS011;7486;51.010;10.366;2023-03-09T16:22:20;4.77;;;3.47;;
14789;SDS011;7486;51.010;10.366;2023-03-09T16:25:06;4.83;;;4.00;;
14789;SDS011;7486;51.010;10.366;2023-03-09T16:27:51;6.13;;;3.60;;
14789;SDS011;7486;51.010;10.366;2023-03-09T16:30:37;5.50;;;3.60;;
14789;SDS011;7486;51.010;10.366;2023-03-09T16:33:22;4.50;;;3.20;;
14789;SDS011;7486;51.010;10.366;2023-03-09T16:36:08;5.13;;;4.73;;
14789;SDS011;7486;51.010;10.366;2023-03-09T16:38:53;3.27;;;2.70;;
14789;SDS011;7486;51.010;10.366;2023-03-09T16:41:38;3.03;;;2.83;;
14789;SDS011;7486;51.010;10.366;2023-03-09T16:44:24;3.17;;;2.73;;
14789;SDS011;7486;51.010;10.366;2023-03-09T16:47:09;4.00;;;3.60;;
14789;SDS011;7486;51.010;10.366;2023-03-09T16:49:58;3.00;;;2.50;;
14789;SDS011;7486;51.010;10.366;2023-03-09T16:52:45;3.73;;;2.67;;
14789;SDS011;7486;51.010;10.366;2023-03-09T16:55:30;3.80;;;2.00;;
14789;SDS011;7486;51.010;10.366;2023-03-09T16:58:16;4.03;;;2.17;;
14789;SDS011;7486;51.010;10.366;2023-03-09T17:01:01;5.57;;;2.40;;
14789;SDS011;7486;51.010;10.366;2023-03-09T17:03:47;6.03;;;2.47;;
14789;SDS011;7486;51.010;10.366;2023-03-09T17:06:32;5.77;;;2.57;;
14789;SDS011;7486;51.010;10.366;2023-03-09T17:09:18;5.37;;;2.33;;
14789;SDS011;7486;51.010;10.366;2023-03-09T17:12:03;7.30;;;2.30;;
14789;SDS011;7486;51.010;10.366;2023-03-09T17:14:52;7.10;;;2.33;;
14789;SDS011;7486;51.010;10.366;2023-03-09T17:17:37;6.67;;;2.10;;
14789;SDS011;7486;51.010;10.366;2023-03-09T17:20:23;6.73;;;2.00;;
14789;SDS011;7486;51.010;10.366;2023-03-09T17:23:08;9.67;;;2.17;;
14789;SDS011;7486;51.010;10.366;2023-03-09T17:25:54;6.10;;;2.43;;
14789;SDS011;7486;51.010;10.366;2023-03-09T17:28:40;9.93;;;2.30;;
14789;SDS011;7486;51.010;10.366;2023-03-09T17:31:25;4.33;;;2.00;;
14789;SDS011;7486;51.010;10.366;2023-03-09T17:34:11;5.33;;;2.03;;
14789;SDS011;7486;51.010;10.366;2023-03-09T17:36:56;6.73;;;1.90;;
14789;SDS011;7486;51.010;10.366;2023-03-09T17:39:42;6.37;;;2.00;;
14789;SDS011;7486;51.010;10.366;2023-03-09T17:42:27;8.57;;;2.70;;
14789;SDS011;7486;51.010;10.366;2023-03-09T17:45:13;8.83;;;2.10;;
14789;SDS011;7486;51.010;10.366;2023-03-09T17:47:58;6.83;;;1.80;;
14789;SDS011;7486;51.010;10.366;2023-03-09T17:50:44;5.17;;;2.07;;
14789;SDS011;7486;51.010;10.366;2023-03-09T17:53:30;7.03;;;2.50;;
14789;SDS011;7486;51.010;10.366;2023-03-09T17:56:16;6.47;;;4.60;;
14789;SDS011;7486;51.010;10.366;2023-03-09T17:59:03;7.30;;;2.50;;
14789;SDS011;7486;51.010;10.366;2023-03-09T18:01:49;7.30;;;2.50;;
14789;SDS011;7486;51.010;10.366;2023-03-09T18:04:35;7.87;;;2.33;;
14789;SDS011;7486;51.010;10.366;2023-03-09T18:07:20;9.07;;;2.80;;
14789;SDS011;7486;51.010;10.366;2023-03-09T18:10:06;4.87;;;2.27;;
14789;SDS011;7486;51.010;10.366;2023-03-09T18:12:52;6.00;;;2.30;;